Time;durP1;ratioP1;P1;durP2;ratioP2;P2;SDS_P1;SDS_P2;PMS_P1;PMS_P2;Temp;Humidity;BMP_temperature;BMP_pressure;BME280_temperature;BME280_humidity;BME280_pressure;Samples;Min_cycle;Max_cycle;Signal;HPM_P1;HPM_P2
2022/09/02 00:01:32;;;;;;;0.60;0.60;;;14.90;99.90;;;;;;5056681;28;20712;-81
2022/09/02 00:04:01;;;;;;;0.60;0.60;;;14.90;99.90;;;;;;5040560;28;20047;-80
2022/09/02 00:06:28;;;;;;;0.50;0.50;;;14.80;99.90;;;;;;5044426;28;20048;-79
2022/09/02 00:08:54;;;;;;;0.50;0.50;;;14.80;99.90;;;;;;5022245;28;20051;-80
2022/09/02 00:11:26;;;;;;;0.50;0.50;;;14.70;99.90;;;;;;5041118;28;20130;-81
2022/09/02 00:13:52;;;;;;;0.50;0.50;;;14.70;99.90;;;;;;5039554;28;20075;-81
2022/09/02 00:16:19;;;;;;;0.50;0.50;;;14.70;99.90;;;;;;5059879;28;21574;-81
2022/09/02 00:18:46;;;;;;;0.55;0.55;;;14.70;99.90;;;;;;5053370;28;20060;-81
2022/09/02 00:21:13;;;;;;;0.50;0.50;;;14.80;99.90;;;;;;5052900;28;20453;-80
2022/09/02 00:23:40;;;;;;;0.50;0.50;;;14.70;99.90;;;;;;5059088;28;20049;-80
2022/09/02 00:26:06;;;;;;;0.50;0.50;;;14.80;99.90;;;;;;5058935;28;20621;-81
2022/09/02 00:28:33;;;;;;;0.50;0.50;;;14.70;99.90;;;;;;5050901;28;20052;-80
2022/09/02 00:30:58;;;;;;;0.57;0.57;;;14.70;99.90;;;;;;5056808;28;20817;-82
2022/09/02 00:33:24;;;;;;;0.50;0.50;;;14.60;99.90;;;;;;5055080;28;20487;-79
2022/09/02 00:35:50;;;;;;;0.50;0.50;;;14.60;99.90;;;;;;5058266;28;20828;-81
2022/09/02 00:38:16;;;;;;;0.60;0.60;;;14.60;99.90;;;;;;5059072;28;20549;-81
2022/09/02 00:40:47;;;;;;;0.50;0.50;;;14.60;99.90;;;;;;5062187;28;20597;-81
2022/09/02 00:43:36;;;;;;;0.50;0.50;;;14.60;99.90;;;;;;5061318;28;20789;-81
2022/09/02 00:46:02;;;;;;;0.50;0.50;;;14.50;99.90;;;;;;5060187;28;20047;-81
2022/09/02 00:48:27;;;;;;;0.50;0.50;;;14.40;99.90;;;;;;5058213;28;20603;-83
2022/09/02 00:50:53;;;;;;;0.50;0.50;;;14.40;99.90;;;;;;5062677;28;20796;-80
2022/09/02 00:53:19;;;;;;;0.50;0.50;;;14.40;99.90;;;;;;5062911;28;20043;-81
2022/09/02 00:55:48;;;;;;;0.50;0.50;;;14.40;99.90;;;;;;5064494;28;20089;-80
2022/09/02 00:58:21;;;;;;;0.50;0.50;;;14.30;99.90;;;;;;5064065;28;20066;-80
2022/09/02 01:00:51;;;;;;;0.50;0.50;;;14.20;99.90;;;;;;5059502;28;20116;-82
2022/09/02 01:03:20;;;;;;;0.50;0.50;;;14.30;99.90;;;;;;5063231;28;20075;-79
2022/09/02 01:05:49;;;;;;;0.50;0.50;;;14.20;99.90;;;;;;5059984;28;20040;-82
2022/09/02 01:08:18;;;;;;;0.50;0.50;;;14.10;99.90;;;;;;5064531;28;20181;-81
2022/09/02 01:10:45;;;;;;;0.60;0.60;;;14.10;99.90;;;;;;5080241;28;20392;-83
2022/09/02 01:13:16;;;;;;;0.50;0.50;;;14.10;99.90;;;;;;5062486;28;20118;-80
2022/09/02 01:15:47;;;;;;;0.50;0.50;;;14.10;99.90;;;;;;5061048;28;20055;-81
2022/09/02 01:18:18;;;;;;;0.50;0.50;;;14.20;99.90;;;;;;5062644;28;20051;-81
2022/09/02 01:20:45;;;;;;;0.50;0.50;;;14.10;99.90;;;;;;5059963;28;20051;-80
2022/09/02 01:23:13;;;;;;;0.50;0.50;;;14.10;99.90;;;;;;5079268;28;20035;-80
2022/09/02 01:25:40;;;;;;;0.50;0.50;;;14.00;99.90;;;;;;5058111;28;20067;-81
2022/09/02 01:28:09;;;;;;;0.50;0.50;;;14.00;99.90;;;;;;5036694;28;20146;-81
2022/09/02 01:30:37;;;;;;;0.52;0.52;;;14.00;99.90;;;;;;5077494;28;20052;-81
2022/09/02 01:33:03;;;;;;;0.50;0.50;;;14.00;99.90;;;;;;5080094;28;20067;-80
2022/09/02 01:35:29;;;;;;;0.60;0.60;;;14.00;99.90;;;;;;5079383;28;20544;-81
2022/09/02 01:37:57;;;;;;;0.50;0.50;;;14.00;99.90;;;;;;5063673;28;21193;-80
2022/09/02 01:40:24;;;;;;;0.50;0.50;;;13.90;99.90;;;;;;5064431;28;20638;-81
2022/09/02 01:42:57;;;;;;;0.50;0.50;;;13.90;99.90;;;;;;5063766;28;20047;-80
2022/09/02 01:45:23;;;;;;;0.60;0.60;;;13.90;99.90;;;;;;5061857;28;20922;-80
2022/09/02 01:47:50;;;;;;;0.50;0.50;;;13.80;99.90;;;;;;5064702;28;20164;-80
2022/09/02 01:50:16;;;;;;;0.50;0.50;;;13.80;99.90;;;;;;5063580;28;20750;-81
2022/09/02 01:52:42;;;;;;;0.50;0.50;;;13.80;99.90;;;;;;5063409;28;20050;-80
2022/09/02 01:55:08;;;;;;;0.50;0.50;;;13.80;99.90;;;;;;5078546;28;20150;-81
2022/09/02 01:57:33;;;;;;;0.50;0.50;;;13.70;99.90;;;;;;5076487;28;20145;-80
2022/09/02 02:00:00;;;;;;;0.50;0.50;;;13.70;99.90;;;;;;5057771;28;20531;-81
2022/09/02 02:02:27;;;;;;;0.50;0.50;;;13.70;99.90;;;;;;5061626;28;20147;-80
2022/09/02 02:04:53;;;;;;;0.50;0.50;;;13.70;99.90;;;;;;5076132;28;20384;-80
2022/09/02 02:07:21;;;;;;;0.50;0.50;;;13.60;99.90;;;;;;5078863;28;20514;-80
2022/09/02 02:09:47;;;;;;;0.50;0.50;;;13.60;99.90;;;;;;5063341;28;20039;-81
2022/09/02 02:12:14;;;;;;;0.50;0.50;;;13.60;99.90;;;;;;5066533;28;20457;-80
2022/09/02 02:14:40;;;;;;;0.60;0.60;;;13.50;99.90;;;;;;5066008;28;20105;-81
2022/09/02 02:17:06;;;;;;;0.50;0.50;;;13.50;99.90;;;;;;5078744;28;20797;-81
2022/09/02 02:19:33;;;;;;;0.50;0.50;;;13.50;99.90;;;;;;5080728;28;20043;-80
2022/09/02 02:21:59;;;;;;;0.50;0.50;;;13.50;99.90;;;;;;5079974;28;20504;-81
2022/09/02 02:24:25;;;;;;;0.50;0.50;;;13.40;99.90;;;;;;5064707;28;20058;-82
2022/09/02 02:26:51;;;;;;;0.50;0.50;;;13.40;99.90;;;;;;5062584;28;20044;-80
2022/09/02 02:29:17;;;;;;;0.52;0.52;;;13.50;99.90;;;;;;5060563;28;20079;-81
2022/09/02 02:31:44;;;;;;;0.55;0.55;;;13.40;99.90;;;;;;5046628;28;20040;-81
2022/09/02 02:34:10;;;;;;;0.50;0.50;;;13.30;99.90;;;;;;5039168;28;20085;-80
2022/09/02 02:36:38;;;;;;;0.60;0.60;;;13.30;99.90;;;;;;5053336;28;20433;-79
2022/09/02 02:39:06;;;;;;;0.60;0.60;;;13.30;99.90;;;;;;5068293;28;20051;-80
2022/09/02 02:41:32;;;;;;;0.57;0.57;;;13.30;99.90;;;;;;5069402;28;20065;-80
2022/09/02 02:43:58;;;;;;;0.60;0.60;;;13.20;99.90;;;;;;5071193;28;20070;-81
2022/09/02 02:46:25;;;;;;;0.50;0.50;;;13.20;99.90;;;;;;5050286;28;20043;-80
2022/09/02 02:48:50;;;;;;;0.50;0.50;;;13.30;99.90;;;;;;5054021;28;20043;-79
2022/09/02 02:51:16;;;;;;;0.50;0.50;;;13.20;99.90;;;;;;5055049;28;20100;-81
2022/09/02 02:53:42;;;;;;;0.60;0.60;;;13.20;99.90;;;;;;5069179;28;20099;-80
2022/09/02 02:56:08;;;;;;;0.55;0.55;;;13.20;99.90;;;;;;5061168;28;20129;-81
2022/09/02 02:58:34;;;;;;;0.50;0.50;;;13.20;99.90;;;;;;5051506;28;20081;-80
2022/09/02 03:01:34;;;;;;;0.50;0.50;;;13.20;99.90;;;;;;5052375;28;20051;-81
2022/09/02 03:04:00;;;;;;;0.50;0.50;;;13.10;99.90;;;;;;5050886;28;20048;-80
2022/09/02 03:06:26;;;;;;;0.50;0.50;;;13.10;99.90;;;;;;5051838;28;20489;-81
2022/09/02 03:08:52;;;;;;;0.50;0.50;;;13.10;99.90;;;;;;5051271;28;20139;-80
2022/09/02 03:11:20;;;;;;;0.50;0.50;;;13.10;99.90;;;;;;5050713;28;20048;-81
2022/09/02 03:13:46;;;;;;;0.50;0.50;;;13.00;99.90;;;;;;5053023;28;20159;-80
2022/09/02 03:16:12;;;;;;;0.50;0.50;;;13.00;99.90;;;;;;5052707;28;20032;-81
2022/09/02 03:18:37;;;;;;;0.50;0.50;;;13.00;99.90;;;;;;5050251;28;20069;-81
2022/09/02 03:21:07;;;;;;;0.50;0.50;;;12.90;99.90;;;;;;5054846;28;20049;-80
2022/09/02 03:23:32;;;;;;;0.50;0.50;;;13.00;99.90;;;;;;5069749;28;20042;-80
2022/09/02 03:25:58;;;;;;;0.60;0.60;;;12.90;99.90;;;;;;5055605;28;20381;-80
2022/09/02 03:28:24;;;;;;;0.50;0.50;;;12.90;99.90;;;;;;5061056;28;20499;-81
2022/09/02 03:30:49;;;;;;;0.50;0.50;;;12.90;99.90;;;;;;5075924;28;20687;-79
2022/09/02 03:33:15;;;;;;;0.50;0.50;;;12.80;99.90;;;;;;5057347;28;20448;-81
2022/09/02 03:35:42;;;;;;;0.50;0.50;;;12.80;99.90;;;;;;5061017;28;20596;-81
2022/09/02 03:38:11;;;;;;;0.50;0.50;;;12.80;99.90;;;;;;5078098;28;20067;-80
2022/09/02 03:40:38;;;;;;;0.50;0.50;;;12.80;99.90;;;;;;5061813;28;20379;-80
2022/09/02 03:43:04;;;;;;;0.50;0.50;;;12.80;99.90;;;;;;5080229;28;20065;-81
2022/09/02 03:45:30;;;;;;;0.50;0.50;;;12.70;99.90;;;;;;5058817;28;20465;-81
2022/09/02 03:47:58;;;;;;;0.50;0.50;;;12.70;99.90;;;;;;5059065;28;20048;-80
2022/09/02 03:50:30;;;;;;;0.50;0.50;;;12.70;99.90;;;;;;5061074;28;20804;-80
2022/09/02 03:52:57;;;;;;;0.50;0.50;;;12.70;99.90;;;;;;5061316;28;20047;-80
2022/09/02 03:55:25;;;;;;;0.50;0.50;;;12.60;99.90;;;;;;5058910;28;20277;-81
2022/09/02 03:57:51;;;;;;;0.50;0.50;;;12.60;99.90;;;;;;5060550;28;20986;-79
2022/09/02 04:00:19;;;;;;;0.50;0.50;;;12.60;99.90;;;;;;5057936;28;20048;-80
2022/09/02 04:02:46;;;;;;;0.50;0.50;;;12.60;99.90;;;;;;5058148;28;20047;-79
2022/09/02 04:05:12;;;;;;;0.50;0.50;;;12.50;99.90;;;;;;5059133;28;20059;-80
2022/09/02 04:07:38;;;;;;;0.50;0.50;;;12.60;99.90;;;;;;5058863;28;20040;-80
2022/09/02 04:10:07;;;;;;;0.50;0.50;;;12.60;99.90;;;;;;5063038;28;20296;-80
2022/09/02 04:12:34;;;;;;;0.50;0.50;;;12.50;99.90;;;;;;5047013;28;20062;-81
2022/09/02 04:15:00;;;;;;;0.50;0.50;;;12.50;99.90;;;;;;5052504;28;20048;-80
2022/09/02 04:17:26;;;;;;;0.50;0.50;;;12.40;99.90;;;;;;5066357;28;20142;-80
2022/09/02 04:19:53;;;;;;;0.50;0.50;;;12.40;99.90;;;;;;5066891;28;20051;-80
2022/09/02 04:22:19;;;;;;;0.50;0.50;;;12.40;99.90;;;;;;5080675;28;20731;-80
2022/09/02 04:24:45;;;;;;;0.50;0.50;;;12.40;99.90;;;;;;5063913;28;20977;-80
2022/09/02 04:27:16;;;;;;;0.50;0.50;;;12.40;99.90;;;;;;5063172;28;20077;-80
2022/09/02 04:29:42;;;;;;;0.50;0.50;;;12.40;99.90;;;;;;5061694;28;20040;-80
2022/09/02 04:32:08;;;;;;;0.50;0.50;;;12.30;99.90;;;;;;5079828;28;20162;-80
2022/09/02 04:34:34;;;;;;;0.50;0.50;;;12.30;99.90;;;;;;5060984;28;20142;-80
2022/09/02 04:36:59;;;;;;;0.50;0.50;;;12.30;99.90;;;;;;5080933;28;20077;-80
2022/09/02 04:39:25;;;;;;;0.50;0.50;;;12.30;99.90;;;;;;5065959;28;20056;-81
2022/09/02 04:41:52;;;;;;;0.50;0.50;;;12.20;99.90;;;;;;5042281;28;20058;-80
2022/09/02 04:44:18;;;;;;;0.50;0.50;;;12.20;99.90;;;;;;5056490;28;20496;-81
2022/09/02 04:46:44;;;;;;;0.50;0.50;;;12.20;99.90;;;;;;5062812;28;20176;-82
2022/09/02 04:49:10;;;;;;;0.50;0.50;;;12.20;99.90;;;;;;5061060;28;20176;-80
2022/09/02 04:51:36;;;;;;;0.45;0.45;;;12.20;99.90;;;;;;5070022;28;20167;-81
2022/09/02 04:54:01;;;;;;;0.50;0.50;;;12.20;99.90;;;;;;5058040;28;20788;-81
2022/09/02 04:56:31;;;;;;;0.50;0.50;;;12.20;99.90;;;;;;5076970;28;20051;-80
2022/09/02 04:58:56;;;;;;;0.50;0.50;;;12.20;99.90;;;;;;5060966;28;20048;-80
2022/09/02 05:01:31;;;;;;;0.50;0.50;;;12.20;99.90;;;;;;5075374;28;20079;-80
2022/09/02 05:03:58;;;;;;;0.50;0.50;;;12.20;99.90;;;;;;5060027;28;20062;-81
2022/09/02 05:06:26;;;;;;;0.50;0.50;;;12.20;99.90;;;;;;5060578;28;20035;-80
2022/09/02 05:08:53;;;;;;;0.50;0.50;;;12.20;99.90;;;;;;5060364;28;20058;-80
2022/09/02 05:11:27;;;;;;;0.50;0.50;;;12.30;99.90;;;;;;5071051;28;20772;-81
2022/09/02 05:13:54;;;;;;;0.50;0.50;;;12.30;99.90;;;;;;5051938;28;20041;-80
2022/09/02 05:16:23;;;;;;;0.50;0.50;;;12.40;99.90;;;;;;5054608;28;20051;-81
2022/09/02 05:18:51;;;;;;;0.50;0.50;;;12.50;99.90;;;;;;5055558;28;20027;-81
2022/09/02 05:21:17;;;;;;;0.50;0.50;;;12.60;99.90;;;;;;5036430;28;20150;-81
2022/09/02 05:23:43;;;;;;;0.50;0.50;;;13.10;99.90;;;;;;5054510;28;20047;-81
2022/09/02 05:26:11;;;;;;;0.50;0.50;;;13.80;99.90;;;;;;5053462;28;20061;-80
2022/09/02 05:28:38;;;;;;;0.50;0.50;;;14.20;99.90;;;;;;5053990;28;20756;-82
2022/09/02 05:31:06;;;;;;;0.60;0.60;;;14.50;99.90;;;;;;5039250;28;20054;-81
2022/09/02 05:33:36;;;;;;;0.50;0.50;;;14.90;99.90;;;;;;5057817;28;20039;-81
2022/09/02 05:36:02;;;;;;;0.50;0.50;;;14.70;99.90;;;;;;5054341;28;20051;-81
2022/09/02 05:38:29;;;;;;;0.40;0.40;;;14.80;99.90;;;;;;5052535;28;20145;-80
2022/09/02 05:40:56;;;;;;;0.50;0.50;;;15.20;99.90;;;;;;5052477;28;20149;-81
2022/09/02 05:43:21;;;;;;;0.50;0.50;;;15.70;99.90;;;;;;5053066;28;20043;-80
2022/09/02 05:45:48;;;;;;;0.50;0.50;;;15.50;99.90;;;;;;5056992;28;20690;-81
2022/09/02 05:50:58;;;;;;;0.50;0.50;;;15.80;99.90;;;;;;5062898;28;20051;-81
2022/09/02 05:53:25;;;;;;;0.50;0.50;;;14.90;99.90;;;;;;5035900;28;20039;-81
2022/09/02 05:55:51;;;;;;;0.50;0.50;;;14.40;99.90;;;;;;5061019;28;20877;-82
2022/09/02 05:58:17;;;;;;;0.50;0.50;;;14.30;99.90;;;;;;5043025;28;20131;-81
2022/09/02 06:00:43;;;;;;;0.50;0.50;;;14.10;99.90;;;;;;5022437;28;20358;-85
2022/09/02 06:03:09;;;;;;;0.40;0.40;;;13.90;99.90;;;;;;5048517;28;20378;-80
2022/09/02 06:05:37;;;;;;;0.50;0.50;;;14.10;99.90;;;;;;5035418;28;20134;-80
2022/09/02 06:08:02;;;;;;;0.50;0.50;;;14.20;99.90;;;;;;5044883;28;20052;-81
2022/09/02 06:10:28;;;;;;;0.50;0.50;;;14.30;99.90;;;;;;5050032;28;20055;-81
2022/09/02 06:12:54;;;;;;;0.50;0.50;;;14.30;99.90;;;;;;5082308;28;20511;-82
2022/09/02 06:15:20;;;;;;;0.50;0.50;;;14.40;99.90;;;;;;5058513;28;20047;-83
2022/09/02 06:17:45;;;;;;;0.47;0.47;;;14.60;99.90;;;;;;5045921;28;20059;-81
2022/09/02 06:20:11;;;;;;;0.50;0.50;;;14.50;99.90;;;;;;5042946;28;20443;-81
2022/09/02 06:22:37;;;;;;;0.50;0.50;;;14.80;99.90;;;;;;5062031;28;20138;-81
2022/09/02 06:25:03;;;;;;;0.50;0.50;;;14.90;99.90;;;;;;5048422;28;20538;-79
2022/09/02 06:27:28;;;;;;;0.43;0.43;;;14.80;99.90;;;;;;5063717;28;20054;-79
2022/09/02 06:29:54;;;;;;;0.47;0.47;;;14.90;99.90;;;;;;5060904;28;20048;-82
2022/09/02 06:32:21;;;;;;;0.50;0.50;;;15.00;99.90;;;;;;5077034;28;20537;-81
2022/09/02 06:34:47;;;;;;;0.50;0.50;;;15.10;99.90;;;;;;5046799;28;20051;-80
2022/09/02 06:37:13;;;;;;;0.50;0.50;;;15.40;99.90;;;;;;5064488;28;20056;-80
2022/09/02 06:39:42;;;;;;;0.50;0.50;;;15.40;99.90;;;;;;5044428;28;20544;-80
2022/09/02 06:42:08;;;;;;;0.40;0.40;;;15.80;99.90;;;;;;5075989;28;20579;-82
2022/09/02 06:44:34;;;;;;;0.40;0.40;;;15.60;99.90;;;;;;5063616;28;20055;-80
2022/09/02 06:47:05;;;;;;;0.40;0.40;;;15.80;99.90;;;;;;5064622;28;20051;-80
2022/09/02 06:49:31;;;;;;;0.40;0.40;;;15.90;99.90;;;;;;5063005;28;20047;-80
2022/09/02 06:51:58;;;;;;;0.50;0.50;;;16.20;99.90;;;;;;5053003;28;20082;-80
2022/09/02 06:54:25;;;;;;;0.40;0.40;;;16.30;99.90;;;;;;5060615;28;20051;-79
2022/09/02 06:56:51;;;;;;;0.40;0.40;;;16.20;99.90;;;;;;5082032;28;20400;-80
2022/09/02 06:59:19;;;;;;;0.40;0.40;;;16.50;99.90;;;;;;5042574;28;20047;-81
2022/09/02 07:01:45;;;;;;;0.45;0.45;;;16.60;99.90;;;;;;5058406;28;20511;-77
2022/09/02 07:06:56;;;;;;;0.40;0.40;;;17.10;99.90;;;;;;5062388;28;20047;-80
2022/09/02 07:09:29;;;;;;;0.40;0.40;;;17.20;99.90;;;;;;5060845;28;20075;-82
2022/09/02 07:11:57;;;;;;;0.40;0.40;;;17.40;99.90;;;;;;5064454;28;20070;-81
2022/09/02 07:14:23;;;;;;;0.40;0.40;;;17.30;99.90;;;;;;5080293;28;20544;-81
2022/09/02 07:16:51;;;;;;;0.40;0.40;;;17.40;99.90;;;;;;5063176;28;20747;-81
2022/09/02 07:19:18;;;;;;;0.40;0.40;;;17.70;99.90;;;;;;5061630;28;20108;-80
2022/09/02 07:21:45;;;;;;;0.40;0.40;;;17.50;99.90;;;;;;5061743;28;20031;-80
2022/09/02 07:24:14;;;;;;;0.50;0.50;;;18.10;99.90;;;;;;5055984;28;20071;-80
2022/09/02 07:26:41;;;;;;;0.40;0.40;;;18.20;99.90;;;;;;5060597;28;20748;-82
2022/09/02 07:29:08;;;;;;;0.40;0.40;;;18.50;99.90;;;;;;5059760;28;20048;-83
2022/09/02 07:31:36;;;;;;;0.40;0.40;;;18.40;99.90;;;;;;5062132;28;20054;-82
2022/09/02 07:34:03;;;;;;;0.40;0.40;;;18.30;99.90;;;;;;5046587;28;20087;-82
2022/09/02 07:36:29;;;;;;;0.40;0.40;;;18.40;99.90;;;;;;5066384;28;20051;-82
2022/09/02 07:38:55;;;;;;;0.40;0.40;;;18.60;99.90;;;;;;5080212;28;20071;-81
2022/09/02 07:41:22;;;;;;;0.40;0.40;;;18.80;99.90;;;;;;5062813;28;20946;-81
2022/09/02 07:43:48;;;;;;;0.50;0.50;;;18.80;99.90;;;;;;5061250;28;20054;-81
2022/09/02 07:46:14;;;;;;;0.40;0.40;;;19.00;99.90;;;;;;5061948;28;20044;-80
2022/09/02 07:48:40;;;;;;;0.40;0.40;;;19.00;99.90;;;;;;5057636;28;20104;-81
2022/09/02 07:51:07;;;;;;;0.40;0.40;;;19.00;99.90;;;;;;5079898;28;20040;-81
2022/09/02 07:53:40;;;;;;;0.40;0.40;;;19.10;99.90;;;;;;5063186;28;20039;-82
2022/09/02 07:56:06;;;;;;;0.40;0.40;;;19.30;99.90;;;;;;5062619;28;20062;-83
2022/09/02 07:58:32;;;;;;;0.32;0.32;;;19.50;99.90;;;;;;5080934;28;20417;-81
2022/09/02 08:00:57;;;;;;;0.40;0.40;;;19.80;99.90;;;;;;5080009;28;20400;-82
2022/09/02 08:03:25;;;;;;;0.30;0.30;;;19.70;99.90;;;;;;5073667;28;20676;-81
2022/09/02 08:05:51;;;;;;;0.32;0.32;;;19.50;99.90;;;;;;5072460;28;20679;-81
2022/09/02 08:08:19;;;;;;;0.40;0.40;;;19.60;99.90;;;;;;5049392;28;20040;-79
2022/09/02 08:10:49;;;;;;;0.40;0.40;;;19.50;99.90;;;;;;5022749;28;20070;-79
2022/09/02 08:13:16;;;;;;;0.40;0.40;;;19.70;99.90;;;;;;5060155;28;21019;-82
2022/09/02 08:15:42;;;;;;;0.50;0.50;;;19.70;99.90;;;;;;5062296;28;20078;-79
2022/09/02 08:18:08;;;;;;;0.40;0.40;;;20.00;99.90;;;;;;5060025;28;20495;-81
2022/09/02 08:20:34;;;;;;;0.32;0.32;;;20.10;99.90;;;;;;5077520;28;20060;-78
2022/09/02 08:23:01;;;;;;;0.30;0.30;;;20.30;99.90;;;;;;5058822;28;20484;-79
2022/09/02 08:25:27;;;;;;;0.30;0.30;;;20.50;99.90;;;;;;5057725;28;20046;-83
2022/09/02 08:27:53;;;;;;;0.47;0.47;;;20.70;99.90;;;;;;5060319;28;20047;-81
2022/09/02 08:30:20;;;;;;;0.30;0.30;;;20.50;99.90;;;;;;5078176;28;20056;-80
2022/09/02 08:32:45;;;;;;;0.30;0.30;;;20.70;99.90;;;;;;5062352;28;20066;-81
2022/09/02 08:35:11;;;;;;;0.40;0.40;;;20.90;99.90;;;;;;5062037;28;20147;-79
2022/09/02 08:37:37;;;;;;;0.30;0.30;;;20.70;99.90;;;;;;5077705;28;20122;-83
2022/09/02 08:40:06;;;;;;;0.30;0.30;;;20.80;99.90;;;;;;5074990;28;20082;-84
2022/09/02 08:42:52;;;;;;;0.30;0.30;;;21.10;99.90;;;;;;5044726;28;20131;-80
2022/09/02 08:45:47;;;;;;;0.30;0.30;;;21.00;99.90;;;;;;5066319;28;20107;-81
2022/09/02 08:48:19;;;;;;;0.30;0.30;;;21.50;99.90;;;;;;5052383;28;20559;-80
2022/09/02 08:50:46;;;;;;;0.30;0.30;;;21.50;99.90;;;;;;5058367;28;20054;-82
2022/09/02 08:53:36;;;;;;;0.30;0.30;;;21.30;99.90;;;;;;5060861;28;20052;-82
2022/09/02 08:56:05;;;;;;;0.30;0.30;;;21.20;99.90;;;;;;5061487;28;20490;-82
2022/09/02 08:58:43;;;;;;;0.30;0.30;;;21.80;99.90;;;;;;5061917;28;20044;-80
2022/09/02 09:01:31;;;;;;;0.30;0.30;;;21.50;99.90;;;;;;5068341;28;20071;-82
2022/09/02 09:04:06;;;;;;;0.30;0.30;;;21.70;99.90;;;;;;5065500;28;21357;-81
2022/09/02 09:06:46;;;;;;;0.30;0.30;;;21.70;99.90;;;;;;5065744;28;20139;-82
2022/09/02 09:09:30;;;;;;;0.30;0.30;;;22.00;99.90;;;;;;5063053;28;21007;-83
2022/09/02 09:12:01;;;;;;;;;;;22.00;99.90;;;;;;5084144;28;20050;-82
2022/09/02 09:14:51;;;;;;;0.30;0.30;;;22.20;99.90;;;;;;5083765;28;19924;-80
2022/09/02 09:17:40;;;;;;;0.30;0.30;;;22.30;99.90;;;;;;5054299;28;20075;-80
2022/09/02 09:20:11;;;;;;;0.30;0.30;;;22.40;99.90;;;;;;5065255;28;20051;-83
2022/09/02 09:22:39;;;;;;;0.30;0.30;;;22.40;99.90;;;;;;5063479;28;20530;-81
2022/09/02 09:25:10;;;;;;;0.30;0.30;;;22.80;99.90;;;;;;5064520;28;20055;-82
2022/09/02 09:27:36;;;;;;;0.30;0.30;;;23.10;99.90;;;;;;5080264;28;20049;-80
2022/09/02 09:30:07;;;;;;;0.30;0.30;;;23.50;99.90;;;;;;5064765;28;20074;-81
2022/09/02 09:32:38;;;;;;;0.30;0.30;;;22.70;98.90;;;;;;5081571;28;20035;-82
2022/09/02 09:35:10;;;;;;;0.30;0.30;;;23.00;99.50;;;;;;5082825;28;20050;-81
2022/09/02 09:37:39;;;;;;;0.30;0.30;;;23.10;99.70;;;;;;5060560;28;20142;-82
2022/09/02 09:40:25;;;;;;;0.40;0.40;;;23.60;99.80;;;;;;5062039;28;20051;-83
2022/09/02 09:43:09;;;;;;;0.30;0.30;;;23.80;98.60;;;;;;5061000;28;20050;-80
2022/09/02 09:45:50;;;;;;;0.30;0.30;;;23.40;98.20;;;;;;5082292;28;20052;-81
2022/09/02 09:48:15;;;;;;;0.30;0.30;;;23.10;98.70;;;;;;5065400;28;20073;-82
2022/09/02 09:50:42;;;;;;;0.30;0.30;;;23.30;98.80;;;;;;5065033;28;20516;-81
2022/09/02 09:53:14;;;;;;;0.30;0.30;;;24.00;99.40;;;;;;5063097;28;20072;-81
2022/09/02 09:55:56;;;;;;;0.30;0.30;;;23.60;96.30;;;;;;5082236;28;20388;-83
2022/09/02 09:58:29;;;;;;;0.30;0.30;;;24.00;97.20;;;;;;5080190;28;20058;-83
2022/09/02 10:00:59;;;;;;;0.30;0.30;;;24.10;97.50;;;;;;5064122;28;20109;-84
2022/09/02 10:03:27;;;;;;;0.30;0.30;;;24.00;95.60;;;;;;5063067;28;20090;-80
2022/09/02 10:05:55;;;;;;;0.30;0.30;;;23.90;97.40;;;;;;5064742;28;20112;-81
2022/09/02 10:08:24;;;;;;;0.30;0.30;;;24.00;96.10;;;;;;5059559;28;20381;-84
2022/09/02 10:11:02;;;;;;;0.30;0.30;;;23.90;96.10;;;;;;5067938;28;20043;-82
2022/09/02 10:13:32;;;;;;;0.30;0.30;;;24.40;96.40;;;;;;5061531;28;20055;-78
2022/09/02 10:16:20;;;;;;;0.28;0.28;;;24.30;94.50;;;;;;5082558;28;20048;-82
2022/09/02 10:18:52;;;;;;;0.30;0.30;;;24.40;94.30;;;;;;5064404;28;20075;-85
2022/09/02 10:21:44;;;;;;;0.30;0.30;;;24.10;93.80;;;;;;5064482;28;20127;-78
2022/09/02 10:24:30;;;;;;;0.30;0.30;;;24.00;94.10;;;;;;5061640;28;20112;-80
2022/09/02 10:26:58;;;;;;;0.20;0.20;;;24.20;94.90;;;;;;5046177;28;20284;-80
2022/09/02 10:29:36;;;;;;;0.30;0.30;;;23.90;93.50;;;;;;5076551;28;20631;-81
2022/09/02 10:32:33;;;;;;;0.30;0.30;;;24.00;94.30;;;;;;5058962;28;20078;-79
2022/09/02 10:35:35;;;;;;;0.30;0.30;;;24.10;94.00;;;;;;5062742;28;20123;-78
2022/09/02 10:38:31;;;;;;;0.30;0.30;;;24.60;92.60;;;;;;5042993;28;20092;-80
2022/09/02 10:41:05;;;;;;;0.30;0.30;;;24.90;93.20;;;;;;5064410;28;20043;-81
2022/09/02 10:43:53;;;;;;;0.30;0.30;;;24.20;92.10;;;;;;5059967;28;21014;-79
2022/09/02 10:46:23;;;;;;;0.30;0.30;;;24.10;93.10;;;;;;5082324;28;20454;-81
2022/09/02 10:49:24;;;;;;;0.30;0.30;;;24.80;92.90;;;;;;5043352;28;20098;-79
2022/09/02 10:52:19;;;;;;;0.30;0.30;;;24.70;92.80;;;;;;5062593;28;20070;-81
2022/09/02 10:55:16;;;;;;;0.30;0.30;;;24.30;92.10;;;;;;4982969;28;20065;-78
2022/09/02 10:57:45;;;;;;;0.30;0.30;;;24.80;92.00;;;;;;5059219;28;20142;-81
2022/09/02 11:00:19;;;;;;;0.30;0.30;;;24.30;91.20;;;;;;5056161;28;20047;-81
2022/09/02 11:03:11;;;;;;;0.30;0.30;;;24.10;92.30;;;;;;5059276;28;20127;-79
2022/09/02 11:05:54;;;;;;;0.30;0.30;;;24.80;91.80;;;;;;5059222;28;20048;-80
2022/09/02 11:08:35;;;;;;;0.30;0.30;;;25.00;92.00;;;;;;5055317;28;20051;-83
2022/09/02 11:11:21;;;;;;;0.30;0.30;;;25.00;91.60;;;;;;5071361;28;20723;-83
2022/09/02 11:14:18;;;;;;;0.30;0.30;;;25.20;92.30;;;;;;5059879;28;20079;-80
2022/09/02 11:16:47;;;;;;;0.30;0.30;;;24.70;91.20;;;;;;5060157;28;20052;-82
2022/09/02 11:19:20;;;;;;;0.30;0.30;;;25.20;91.20;;;;;;5054882;28;20043;-80
2022/09/02 11:22:06;;;;;;;0.30;0.30;;;25.30;91.50;;;;;;5062232;28;20569;-80
2022/09/02 11:25:02;;;;;;;0.30;0.30;;;25.10;91.00;;;;;;5056554;28;20046;-82
2022/09/02 11:27:34;;;;;;;0.30;0.30;;;25.60;91.50;;;;;;5074533;28;20445;-82
2022/09/02 11:30:02;;;;;;;0.30;0.30;;;25.00;92.10;;;;;;5056932;28;20870;-82
2022/09/02 11:32:44;;;;;;;0.30;0.30;;;25.30;91.40;;;;;;5080266;28;20134;-82
2022/09/02 11:35:23;;;;;;;0.30;0.30;;;25.80;91.20;;;;;;5080557;28;20120;-80
2022/09/02 11:37:55;;;;;;;0.30;0.30;;;25.60;90.60;;;;;;5063587;28;20050;-81
2022/09/02 11:40:56;;;;;;;0.20;0.20;;;25.40;90.80;;;;;;5043129;28;20055;-81
2022/09/02 11:43:29;;;;;;;0.30;0.30;;;25.00;90.10;;;;;;5021742;28;20083;-82
2022/09/02 11:46:30;;;;;;;0.30;0.30;;;25.50;90.30;;;;;;5065113;28;20607;-82
2022/09/02 11:49:04;;;;;;;0.30;0.30;;;25.80;90.50;;;;;;5062557;28;20067;-82
2022/09/02 11:51:49;;;;;;;0.30;0.30;;;26.00;90.10;;;;;;5046137;28;20394;-84
2022/09/02 11:54:18;;;;;;;0.30;0.30;;;25.60;89.20;;;;;;5066172;28;20560;-82
2022/09/02 11:56:47;;;;;;;0.30;0.30;;;25.90;90.50;;;;;;5043869;28;20044;-82
2022/09/02 11:59:51;;;;;;;0.30;0.30;;;26.10;90.30;;;;;;5060492;28;20058;-81
2022/09/02 12:02:49;;;;;;;0.30;0.30;;;25.90;89.30;;;;;;5057954;28;20191;-81
2022/09/02 12:05:30;;;;;;;0.30;0.30;;;26.00;88.60;;;;;;5049360;28;20056;-78
2022/09/02 12:08:01;;;;;;;0.30;0.30;;;25.70;86.10;;;;;;5080305;28;20048;-83
2022/09/02 12:10:42;;;;;;;0.30;0.30;;;25.00;85.50;;;;;;5081136;28;20472;-79
2022/09/02 12:13:37;;;;;;;0.30;0.30;;;24.90;85.90;;;;;;5061168;28;20057;-80
2022/09/02 12:16:15;;;;;;;0.30;0.30;;;24.80;88.20;;;;;;5058980;28;20153;-81
2022/09/02 12:18:44;;;;;;;0.30;0.30;;;25.00;90.30;;;;;;5051127;28;20162;-81
2022/09/02 12:21:17;;;;;;;0.30;0.30;;;25.80;90.00;;;;;;5066105;28;20062;-80
2022/09/02 12:23:55;;;;;;;0.30;0.30;;;25.10;86.10;;;;;;5063135;28;20051;-84
2022/09/02 12:26:27;;;;;;;0.30;0.30;;;24.80;86.70;;;;;;5065253;28;20043;-82
2022/09/02 12:29:18;;;;;;;0.30;0.30;;;25.50;88.70;;;;;;5055441;28;20044;-83
2022/09/02 12:31:46;;;;;;;0.30;0.30;;;25.90;88.00;;;;;;5060225;28;20515;-81
2022/09/02 12:34:24;;;;;;;0.30;0.30;;;26.00;86.60;;;;;;5066403;28;20051;-80
2022/09/02 12:37:00;;;;;;;0.30;0.30;;;25.60;88.20;;;;;;5067712;28;20098;-81
2022/09/02 12:39:29;;;;;;;0.30;0.30;;;25.40;86.50;;;;;;5066251;28;20046;-83
2022/09/02 12:42:09;;;;;;;0.30;0.30;;;25.90;87.60;;;;;;5063871;28;20043;-82
2022/09/02 12:44:44;;;;;;;0.30;0.30;;;26.00;88.10;;;;;;5084948;28;20055;-82
2022/09/02 12:47:48;;;;;;;0.25;0.25;;;26.30;87.10;;;;;;5085964;28;20067;-83
2022/09/02 12:50:42;;;;;;;0.20;0.20;;;26.20;88.30;;;;;;5028381;28;20055;-81
2022/09/02 12:53:08;;;;;;;0.30;0.30;;;25.90;88.00;;;;;;5067458;28;20559;-80
2022/09/02 12:55:35;;;;;;;0.20;0.20;;;26.00;87.30;;;;;;5067204;28;20039;-81
2022/09/02 12:58:07;;;;;;;0.30;0.30;;;25.60;86.90;;;;;;5065486;28;20571;-84
2022/09/02 13:00:44;;;;;;;0.30;0.30;;;25.70;88.90;;;;;;5065295;28;20111;-81
2022/09/02 13:03:22;;;;;;;0.30;0.30;;;26.00;87.60;;;;;;5070020;28;20048;-81
2022/09/02 13:06:00;;;;;;;0.30;0.30;;;26.00;87.80;;;;;;5078306;28;20047;-82
2022/09/02 13:08:45;;;;;;;0.30;0.30;;;25.40;88.50;;;;;;5068366;28;20048;-81
2022/09/02 13:11:13;;;;;;;0.30;0.30;;;24.80;86.20;;;;;;5069558;28;20610;-82
2022/09/02 13:14:10;;;;;;;0.30;0.30;;;25.10;88.60;;;;;;5067202;28;20051;-81